Date,TemperatureHighF,TemperatureAvgF,TemperatureLowF,DewpointHighF,DewpointAvgF,DewpointLowF,HumidityHigh,HumidityAvg,HumidityLow,PressureMaxIn,PressureMinIn,WindSpeedMaxMPH,WindSpeedAvgMPH,GustSpeedMaxMPH,PrecipitationSumIn
2013-10-1,77,64,50,64,57,48,96,79,46,30.00,29.90,12,2,15,0.00
2013-10-2,82,67,54,65,60,52,96,80,51,30.02,29.90,16,3,19,0.00
2013-10-3,80,65,51,60,54,42,93,71,27,30.13,30.02,13,2,14,0.00
2013-10-4,80,65,57,68,61,55,95,86,64,30.10,30.00,8,2,9,0.00
2013-10-5,73,65,60,64,60,58,93,86,71,30.14,30.06,10,2,13,0.00
2013-10-6,64,63,61,62,61,59,96,93,86,30.18,30.10,13,4,16,0.24
2013-10-7,74,69,63,69,66,56,97,91,79,30.10,29.86,27,6,35,0.03
2013-10-8,68,59,51,56,47,40,92,68,38,30.36,29.95,13,3,18,0.00
2013-10-9,66,56,49,52,46,41,82,69,51,30.44,30.34,15,4,16,0.00
2013-10-10,65,58,51,57,52,46,86,80,72,30.34,30.12,16,5,16,0.00
2013-10-11,69,63,58,60,55,41,89,76,49,30.13,30.06,14,5,18,0.00
2013-10-12,71,61,55,60,51,40,85,69,50,30.36,30.12,19,5,21,0.00
2013-10-13,61,56,48,52,50,46,91,81,68,30.43,30.33,18,3,19,0.00
2013-10-14,63,52,43,51,47,42,94,82,58,30.42,30.29,10,2,11,0.00
2013-10-15,68,56,45,54,48,44,96,78,48,30.29,30.18,11,3,14,0.00
2013-10-16,70,59,51,59,53,48,96,82,65,30.18,29.94,8,2,10,0.00
2013-10-17,72,64,61,63,61,59,94,89,70,29.94,29.75,16,3,21,0.00
2013-10-18,70,64,51,63,52,43,94,66,41,29.97,29.67,18,4,25,0.01
2013-10-19,65,55,42,56,47,40,93,75,50,30.01,29.77,12,3,17,0.00
2013-10-20,65,57,44,59,43,34,90,63,33,30.07,29.74,15,3,18,0.00
2013-10-21,67,54,39,50,43,37,91,67,36,30.17,30.02,22,4,24,0.00
2013-10-22,69,61,50,54,51,41,81,70,51,30.02,29.74,15,4,19,0.00
2013-10-23,50,46,39,42,39,35,93,76,55,29.83,29.63,8,2,9,0.01
2013-10-24,57,47,38,38,33,26,89,61,34,29.97,29.73,18,3,21,0.00
2013-10-25,53,44,34,34,30,27,84,61,40,30.23,29.97,13,2,18,0.00
2013-10-26,55,45,30,44,36,28,95,71,45,30.22,29.92,22,5,24,0.00
2013-10-27,59,51,37,40,36,32,84,57,39,30.12,29.86,15,3,22,0.00
2013-10-28,60,46,31,44,36,29,94,70,45,30.36,30.12,17,2,22,0.00
2013-10-29,52,44,35,36,32,27,88,62,43,30.45,30.36,10,2,12,0.00
2013-10-30,57,48,36,50,42,32,96,80,67,30.39,30.22,6,0,7,0.00
2013-10-31,64,55,41,61,53,40,98,93,86,30.26,29.85,11,1,15,0.09